Time;durP1;ratioP1;P1;durP2;ratioP2;P2;SDS_P1;SDS_P2;PMS_P1;PMS_P2;Temp;Humidity;BMP_temperature;BMP_pressure;BME280_temperature;BME280_humidity;BME280_pressure;Samples;Min_cycle;Max_cycle;Signal;HPM_P1;HPM_P2
2022/06/27 00:02:13;;;;;;;1.90;1.10;;;;;;;20.93;89.63;100163.78;5011726;28;20747;-74
2022/06/27 00:04:38;;;;;;;2.20;1.20;;;;;;;20.97;90.04;100191.50;5028783;28;20897;-74
2022/06/27 00:07:03;;;;;;;2.50;1.37;;;;;;;21.02;89.84;100205.13;5026775;28;20418;-74
2022/06/27 00:09:29;;;;;;;2.92;1.02;;;;;;;21.04;90.00;100222.94;5016892;28;20439;-74
2022/06/27 00:11:55;;;;;;;1.80;0.83;;;;;;;21.04;89.83;100244.97;5024520;28;20395;-74
2022/06/27 00:14:21;;;;;;;2.45;0.90;;;;;;;21.00;88.00;100277.06;5029989;28;20854;-75
2022/06/27 00:16:46;;;;;;;2.30;1.27;;;;;;;20.96;86.53;100278.03;5030294;28;20406;-74
2022/06/27 00:19:11;;;;;;;1.92;1.38;;;;;;;21.00;87.67;100293.63;5007343;28;20398;-74
2022/06/27 00:21:36;;;;;;;1.23;1.13;;;;;;;21.04;86.91;100307.56;5021032;28;20403;-74
2022/06/27 00:24:02;;;;;;;1.40;1.30;;;;;;;21.03;86.51;100319.72;5026505;28;20407;-74
2022/06/27 00:26:27;;;;;;;1.97;1.20;;;;;;;20.98;85.69;100319.84;5030311;28;20449;-74
2022/06/27 00:28:53;;;;;;;1.37;1.27;;;;;;;20.93;85.30;100297.94;5018669;28;20444;-74
2022/06/27 00:31:18;;;;;;;1.40;0.90;;;;;;;20.91;85.22;100291.94;5021462;28;20437;-74
2022/06/27 00:33:43;;;;;;;0.80;0.80;;;;;;;20.92;86.84;100263.25;5029016;28;20453;-74
2022/06/27 00:36:09;;;;;;;0.87;0.87;;;;;;;20.90;88.02;100227.78;5021882;28;20438;-75
2022/06/27 00:38:34;;;;;;;1.67;0.93;;;;;;;20.83;88.64;100190.81;5031325;28;20387;-74
2022/06/27 00:40:59;;;;;;;1.27;0.70;;;;;;;20.75;88.91;100175.06;5027609;28;20394;-74
2022/06/27 00:43:25;;;;;;;1.07;0.70;;;;;;;20.67;88.59;100119.66;5034438;28;20855;-74
2022/06/27 00:45:50;;;;;;;2.60;0.80;;;;;;;20.53;88.26;100046.56;5032953;28;20503;-74
2022/06/27 00:48:15;;;;;;;0.80;0.80;;;;;;;20.46;87.97;99991.16;5019794;28;20402;-74
2022/06/27 00:50:41;;;;;;;1.00;0.60;;;;;;;20.34;88.14;99953.28;5022101;28;20418;-74
2022/06/27 00:53:07;;;;;;;2.15;0.70;;;;;;;20.22;87.94;99903.53;5023158;28;20401;-74
2022/06/27 00:55:33;;;;;;;2.65;0.70;;;;;;;20.18;88.35;99899.81;5030421;28;20391;-75
2022/06/27 00:58:00;;;;;;;0.30;0.30;;;;;;;20.18;88.34;99925.41;5027907;28;20821;-74
2022/06/27 01:00:26;;;;;;;0.60;0.60;;;;;;;20.24;88.63;99956.31;5031139;28;20398;-74
2022/06/27 01:02:51;;;;;;;1.35;0.40;;;;;;;20.39;88.72;99977.06;5034104;28;20391;-74
2022/06/27 01:05:17;;;;;;;0.70;0.43;;;;;;;20.41;88.34;99988.59;5031347;28;20886;-75
2022/06/27 01:07:42;;;;;;;0.50;0.43;;;;;;;20.41;88.40;100016.09;5031879;28;20469;-75
2022/06/27 01:10:08;;;;;;;0.50;0.50;;;;;;;20.43;88.57;100044.13;5020270;28;20791;-74
2022/06/27 01:12:34;;;;;;;0.43;0.40;;;;;;;20.50;88.37;100053.53;5012402;28;20440;-74
2022/06/27 01:15:00;;;;;;;1.90;0.30;;;;;;;20.57;88.19;100064.88;5028799;28;20913;-74
2022/06/27 01:17:26;;;;;;;1.00;0.20;;;;;;;20.64;87.55;100101.03;5022305;28;20404;-74
2022/06/27 01:19:52;;;;;;;0.40;0.40;;;;;;;20.59;87.82;100131.44;5033920;28;20882;-75
2022/06/27 01:22:18;;;;;;;0.87;0.40;;;;;;;20.50;87.63;100122.34;5033784;28;20399;-74
2022/06/27 01:24:43;;;;;;;0.45;0.35;;;;;;;20.52;88.14;100124.78;5033428;28;20438;-75
2022/06/27 01:27:09;;;;;;;1.55;0.40;;;;;;;20.58;88.09;100118.78;5011364;28;20782;-75
2022/06/27 01:29:34;;;;;;;1.03;0.50;;;;;;;20.58;87.76;100126.28;5033681;28;20460;-75
2022/06/27 01:32:00;;;;;;;1.30;0.40;;;;;;;20.48;87.54;100154.88;5022988;28;20407;-74
2022/06/27 01:34:26;;;;;;;1.50;0.30;;;;;;;20.34;87.67;100158.88;5021775;28;20412;-75
2022/06/27 01:36:51;;;;;;;0.80;0.47;;;;;;;20.27;87.48;100167.56;5013219;28;20412;-75
2022/06/27 01:39:19;;;;;;;1.17;0.40;;;;;;;20.23;87.96;100163.78;5032340;28;20399;-75
2022/06/27 01:41:46;;;;;;;2.72;0.50;;;;;;;20.17;87.38;100156.81;5033019;28;20399;-75
2022/06/27 01:44:12;;;;;;;0.40;0.30;;;;;;;20.08;88.18;100165.03;5025160;28;20452;-74
2022/06/27 01:46:45;;;;;;;0.90;0.38;;;;;;;20.09;87.83;100158.38;5022775;28;20405;-74
2022/06/27 01:49:13;;;;;;;0.52;0.32;;;;;;;20.05;87.77;100153.84;5003559;28;20441;-75
2022/06/27 01:51:39;;;;;;;1.40;0.55;;;;;;;20.07;88.04;100146.06;5018758;28;20747;-75
2022/06/27 01:54:07;;;;;;;4.30;0.52;;;;;;;20.17;87.72;100145.81;5033256;28;20746;-74
2022/06/27 01:56:33;;;;;;;0.30;0.30;;;;;;;20.27;87.24;100142.00;5025943;28;20400;-75
2022/06/27 01:58:59;;;;;;;0.33;0.33;;;;;;;20.32;87.35;100109.63;5017784;28;20461;-75
2022/06/27 02:01:25;;;;;;;0.80;0.40;;;;;;;20.38;87.38;100091.06;5019562;28;20391;-74
2022/06/27 02:03:51;;;;;;;0.40;0.40;;;;;;;20.39;87.06;100081.66;5019471;28;20420;-74
2022/06/27 02:06:16;;;;;;;1.40;0.60;;;;;;;20.42;86.94;100089.28;5056170;28;20520;-75
2022/06/27 02:08:46;;;;;;;2.45;0.68;;;;;;;20.47;87.06;100100.16;5021514;28;20452;-74
2022/06/27 02:11:13;;;;;;;0.90;0.50;;;;;;;20.49;86.65;100111.63;5032943;28;20429;-75
2022/06/27 02:13:38;;;;;;;1.90;0.47;;;;;;;20.47;87.07;100102.91;5032828;28;20802;-75
2022/06/27 02:16:11;;;;;;;1.00;0.52;;;;;;;20.46;87.14;100104.84;5028235;28;20392;-75
2022/06/27 02:18:37;;;;;;;1.52;0.40;;;;;;;20.50;87.09;100105.00;5027757;28;20422;-75
2022/06/27 02:21:03;;;;;;;0.87;0.50;;;;;;;20.48;87.04;100097.06;5020996;28;20394;-75
2022/06/27 02:23:28;;;;;;;3.53;0.43;;;;;;;20.47;86.80;100092.72;5032894;28;20436;-75
2022/06/27 02:25:56;;;;;;;2.90;0.60;;;;;;;20.44;86.35;100101.59;5032524;28;20490;-74
2022/06/27 02:28:22;;;;;;;0.57;0.50;;;;;;;20.42;86.45;100114.03;5015802;28;20407;-75
2022/06/27 02:30:48;;;;;;;1.25;0.50;;;;;;;20.41;86.25;100107.75;5029137;28;20411;-74
2022/06/27 02:33:14;;;;;;;2.10;0.60;;;;;;;20.39;85.99;100098.16;5010395;28;20478;-75
2022/06/27 02:35:40;;;;;;;0.50;0.50;;;;;;;20.39;85.75;100093.47;5019502;28;20959;-75
2022/06/27 02:38:09;;;;;;;0.32;0.30;;;;;;;20.37;85.94;100076.47;5030467;28;20397;-75
2022/06/27 02:40:35;;;;;;;3.53;0.70;;;;;;;20.37;85.65;100070.97;5032212;28;20956;-75
2022/06/27 02:43:01;;;;;;;2.20;0.68;;;;;;;20.34;85.40;100092.81;5030540;28;20426;-75
2022/06/27 02:45:30;;;;;;;1.63;0.60;;;;;;;20.23;85.96;100105.19;5021121;28;20879;-75
2022/06/27 02:47:57;;;;;;;1.00;0.80;;;;;;;20.24;85.37;100087.56;5030333;28;20438;-75
2022/06/27 02:50:26;;;;;;;2.25;1.05;;;;;;;20.28;85.33;100092.16;5026245;28;20388;-75
2022/06/27 02:52:55;;;;;;;2.50;0.87;;;;;;;20.24;85.67;100102.16;5022533;28;20862;-75
2022/06/27 02:55:27;;;;;;;2.40;1.10;;;;;;;20.25;85.55;100102.97;5025598;28;20429;-75
2022/06/27 02:58:19;;;;;;;0.65;0.60;;;;;;;20.26;85.57;100079.78;5031267;28;20711;-74
2022/06/27 03:00:48;;;;;;;1.00;0.53;;;;;;;20.21;85.97;100061.50;5026499;28;20415;-75
2022/06/27 03:03:15;;;;;;;0.82;0.57;;;;;;;20.15;85.83;100065.53;5023807;28;20403;-75
2022/06/27 03:06:03;;;;;;;2.25;0.60;;;;;;;19.99;86.13;100084.38;5030331;28;20900;-74
2022/06/27 03:08:45;;;;;;;1.00;0.80;;;;;;;19.89;86.65;100076.41;5026758;28;20486;-75
2022/06/27 03:11:13;;;;;;;3.65;0.65;;;;;;;19.85;86.71;100069.94;5031714;28;20387;-75
2022/06/27 03:13:38;;;;;;;2.03;0.83;;;;;;;19.93;86.51;100058.13;5029333;28;20490;-75
2022/06/27 03:16:04;;;;;;;1.35;0.52;;;;;;;19.91;86.12;100054.91;5021008;28;20560;-75
2022/06/27 03:18:29;;;;;;;1.53;0.80;;;;;;;19.88;86.12;100043.72;5023137;28;20604;-75
2022/06/27 03:20:54;;;;;;;3.30;0.53;;;;;;;19.96;85.82;100041.00;5031519;28;20394;-75
2022/06/27 03:23:20;;;;;;;0.93;0.70;;;;;;;19.92;85.54;100055.72;5025454;28;20404;-75
2022/06/27 03:25:45;;;;;;;2.20;0.80;;;;;;;19.77;85.94;100050.63;5017353;28;20508;-75
2022/06/27 03:28:10;;;;;;;2.67;0.77;;;;;;;19.74;86.28;100067.75;5018047;28;20781;-75
2022/06/27 03:30:36;;;;;;;2.50;0.63;;;;;;;19.67;86.39;100092.94;5014566;28;20397;-75
2022/06/27 03:33:01;;;;;;;1.17;0.65;;;;;;;19.60;86.60;100090.63;5025192;28;20513;-75
2022/06/27 03:35:26;;;;;;;0.80;0.60;;;;;;;19.66;86.62;100083.88;5031195;28;20418;-75
2022/06/27 03:37:52;;;;;;;2.40;0.60;;;;;;;19.68;86.04;100094.56;5031255;28;20402;-75
2022/06/27 03:40:17;;;;;;;3.30;0.85;;;;;;;19.61;85.89;100095.00;5031333;28;20395;-75
2022/06/27 03:42:42;;;;;;;2.20;0.70;;;;;;;19.59;86.01;100094.50;5012057;28;20421;-75
2022/06/27 03:45:08;;;;;;;0.87;0.87;;;;;;;19.57;86.04;100090.44;5030998;28;20418;-75
2022/06/27 03:47:51;;;;;;;3.03;1.02;;;;;;;19.61;86.15;100095.00;5031067;28;20450;-75
2022/06/27 03:50:18;;;;;;;1.45;1.17;;;;;;;19.57;85.89;100099.50;5031126;28;20410;-75
2022/06/27 03:52:44;;;;;;;1.15;0.90;;;;;;;19.53;86.30;100092.19;5017397;28;20811;-75
2022/06/27 03:55:10;;;;;;;3.95;1.38;;;;;;;19.55;86.47;100089.94;5031148;28;20383;-75
2022/06/27 03:57:46;;;;;;;1.45;1.10;;;;;;;19.55;86.31;100129.25;5022656;28;20770;-75
2022/06/27 04:00:12;;;;;;;2.30;1.60;;;;;;;19.54;86.47;100115.81;5017755;28;20385;-75
2022/06/27 04:02:37;;;;;;;2.95;1.20;;;;;;;19.56;86.54;100075.88;5017373;28;20431;-75
2022/06/27 04:05:03;;;;;;;2.50;0.90;;;;;;;19.59;86.41;100085.47;5030927;28;20913;-75
2022/06/27 04:07:29;;;;;;;2.80;1.48;;;;;;;19.65;86.05;100117.19;5030678;28;20399;-75
2022/06/27 04:09:55;;;;;;;2.43;1.50;;;;;;;19.73;86.12;100121.91;5025262;28;20420;-75
2022/06/27 04:12:20;;;;;;;1.60;1.50;;;;;;;19.75;85.70;100113.38;5012584;28;20553;-75
2022/06/27 04:14:46;;;;;;;4.45;1.75;;;;;;;19.68;86.00;100100.88;5032981;28;20391;-75
2022/06/27 04:17:11;;;;;;;3.17;1.50;;;;;;;19.76;86.13;100112.25;5021677;28;20505;-75
2022/06/27 04:19:36;;;;;;;2.13;1.30;;;;;;;19.78;85.52;100115.47;5034965;28;20936;-75
2022/06/27 04:22:02;;;;;;;1.40;1.30;;;;;;;19.65;85.74;100118.00;5032205;28;20405;-75
2022/06/27 04:24:27;;;;;;;2.00;1.60;;;;;;;19.67;85.94;100126.72;5008790;28;20424;-75
2022/06/27 04:26:52;;;;;;;3.37;1.17;;;;;;;19.69;86.01;100131.94;5020498;28;20410;-75
2022/06/27 04:29:18;;;;;;;1.63;1.13;;;;;;;19.77;85.68;100153.16;5024513;28;20397;-75
2022/06/27 04:31:43;;;;;;;2.75;1.60;;;;;;;19.83;85.46;100164.84;5014311;28;20547;-75
2022/06/27 04:34:12;;;;;;;4.00;1.73;;;;;;;19.91;85.43;100153.09;5010702;28;20638;-75
2022/06/27 04:36:37;;;;;;;3.03;1.60;;;;;;;19.96;85.39;100155.69;5019936;28;20990;-75
2022/06/27 04:39:03;;;;;;;3.00;1.47;;;;;;;19.92;85.45;100163.75;5024736;28;20415;-75
2022/06/27 04:41:29;;;;;;;3.13;1.85;;;;;;;20.02;85.47;100159.97;5034482;28;20853;-75
2022/06/27 04:43:54;;;;;;;2.03;1.67;;;;;;;19.99;85.44;100161.38;5021146;28;20420;-75
2022/06/27 04:46:20;;;;;;;2.10;1.97;;;;;;;20.02;85.38;100159.97;5049352;28;20490;-75
2022/06/27 04:48:46;;;;;;;2.87;2.10;;;;;;;19.94;86.01;100142.28;5019215;28;20397;-75
2022/06/27 04:51:14;;;;;;;2.15;1.92;;;;;;;19.96;85.92;100145.53;5027522;28;20387;-75
2022/06/27 04:53:40;;;;;;;2.40;2.30;;;;;;;20.05;85.69;100156.59;5037717;28;20864;-75
2022/06/27 04:56:06;;;;;;;3.63;2.17;;;;;;;20.07;85.05;100138.63;5018874;28;20411;-75
2022/06/27 04:58:32;;;;;;;2.42;2.22;;;;;;;19.99;85.13;100141.34;5023586;28;20388;-75
2022/06/27 05:00:57;;;;;;;4.67;2.10;;;;;;;19.99;85.44;100150.38;5019633;28;20409;-75
2022/06/27 05:03:23;;;;;;;4.65;2.80;;;;;;;20.05;85.34;100171.16;5009619;28;20896;-75
2022/06/27 05:05:50;;;;;;;2.33;2.13;;;;;;;20.13;85.08;100172.31;5003984;28;20919;-75
2022/06/27 05:08:16;;;;;;;2.47;2.08;;;;;;;20.07;85.51;100187.34;5021302;28;20876;-75
2022/06/27 05:10:41;;;;;;;3.22;2.25;;;;;;;19.96;86.28;100195.03;5012167;28;20518;-74
2022/06/27 05:13:06;;;;;;;2.50;2.27;;;;;;;20.07;86.00;100204.66;5014045;28;20409;-74
2022/06/27 05:15:32;;;;;;;4.80;3.80;;;;;;;20.16;85.71;100215.69;5016962;28;20406;-74
2022/06/27 05:17:57;;;;;;;2.72;2.53;;;;;;;20.16;85.48;100216.53;5008972;28;20421;-74
2022/06/27 05:20:23;;;;;;;4.90;2.40;;;;;;;20.18;86.01;100219.78;5016250;28;20410;-74
2022/06/27 05:22:48;;;;;;;3.60;3.00;;;;;;;20.18;85.82;100213.47;5019509;28;20882;-74
2022/06/27 05:25:13;;;;;;;2.10;2.00;;;;;;;20.18;85.62;100225.28;5013856;28;20452;-74
2022/06/27 05:27:38;;;;;;;1.83;1.70;;;;;;;20.05;85.87;100230.88;5019808;28;20409;-74
2022/06/27 05:30:05;;;;;;;2.80;2.13;;;;;;;20.02;86.32;100237.00;5017589;28;20872;-74
2022/06/27 05:32:30;;;;;;;2.65;2.45;;;;;;;20.11;86.64;100244.19;5024727;28;20426;-74
2022/06/27 05:34:56;;;;;;;2.10;2.00;;;;;;;20.15;86.16;100245.16;5011766;28;20400;-74
2022/06/27 05:37:21;;;;;;;5.15;2.17;;;;;;;20.18;86.09;100246.50;5014107;28;20410;-74
2022/06/27 05:39:46;;;;;;;3.23;2.23;;;;;;;20.27;85.64;100249.31;5016135;28;20412;-74
2022/06/27 05:42:12;;;;;;;2.97;2.77;;;;;;;20.37;84.65;100249.06;5013735;28;20413;-74
2022/06/27 05:44:37;;;;;;;4.22;2.90;;;;;;;20.39;84.59;100257.81;5023410;28;20515;-76
2022/06/27 05:47:03;;;;;;;4.87;3.20;;;;;;;20.26;85.34;100259.47;5027607;28;20463;-74
2022/06/27 05:49:29;;;;;;;3.67;3.50;;;;;;;20.23;85.67;100242.78;5019862;28;20442;-74
2022/06/27 05:51:57;;;;;;;4.13;3.83;;;;;;;20.29;85.34;100236.03;5019439;28;20432;-74
2022/06/27 05:54:24;;;;;;;4.43;4.00;;;;;;;20.31;85.65;100242.88;5022646;28;20892;-75
2022/06/27 05:56:49;;;;;;;3.97;3.60;;;;;;;20.35;85.17;100241.09;5016447;28;20755;-75
2022/06/27 05:59:16;;;;;;;4.90;3.40;;;;;;;20.32;85.24;100265.72;5016568;28;20729;-75
2022/06/27 06:01:41;;;;;;;3.53;3.20;;;;;;;20.34;85.42;100261.50;5023420;28;20407;-75
2022/06/27 06:04:08;;;;;;;3.57;3.37;;;;;;;20.39;85.37;100260.56;5022412;28;20424;-74
2022/06/27 06:06:33;;;;;;;3.97;3.25;;;;;;;20.39;85.29;100263.31;5016594;28;20459;-74
2022/06/27 06:08:59;;;;;;;2.90;2.80;;;;;;;20.39;85.27;100264.13;5007813;28;20922;-75
2022/06/27 06:11:25;;;;;;;5.57;2.50;;;;;;;20.44;85.14;100279.69;5001509;28;20402;-74
2022/06/27 06:13:52;;;;;;;6.57;3.13;;;;;;;20.42;85.25;100274.50;5008385;28;20404;-74
2022/06/27 06:16:19;;;;;;;2.90;2.55;;;;;;;20.48;85.31;100270.47;5017493;28;20492;-76
2022/06/27 06:18:47;;;;;;;3.13;2.92;;;;;;;20.53;85.17;100264.03;5018666;28;20405;-74
2022/06/27 06:21:12;;;;;;;3.25;2.13;;;;;;;20.48;85.50;100267.72;5013570;28;20950;-74
2022/06/27 06:23:38;;;;;;;3.70;2.13;;;;;;;20.41;85.52;100270.16;5003780;28;20414;-78
2022/06/27 06:26:05;;;;;;;2.60;2.40;;;;;;;20.37;86.00;100266.38;5006995;28;20475;-74
2022/06/27 06:28:32;;;;;;;4.43;2.70;;;;;;;20.38;86.10;100276.28;5008024;28;20411;-74
2022/06/27 06:30:57;;;;;;;3.03;2.60;;;;;;;20.38;86.39;100272.72;5041225;28;20443;-75
2022/06/27 06:33:23;;;;;;;3.50;2.37;;;;;;;20.44;85.86;100269.50;5020245;28;20403;-75
2022/06/27 06:35:48;;;;;;;4.80;2.33;;;;;;;20.36;86.14;100266.69;5031181;28;20404;-75
2022/06/27 06:38:15;;;;;;;2.28;2.17;;;;;;;20.34;86.24;100275.28;5001111;28;20410;-75
2022/06/27 06:40:40;;;;;;;2.40;2.30;;;;;;;20.42;86.58;100262.66;5018542;28;20409;-75
2022/06/27 06:43:06;;;;;;;2.97;2.60;;;;;;;20.54;85.58;100271.19;5022844;28;20391;-74
2022/06/27 06:45:31;;;;;;;2.63;2.37;;;;;;;20.44;85.68;100274.19;5030497;28;20419;-75
2022/06/27 06:47:57;;;;;;;2.45;2.28;;;;;;;20.33;86.21;100276.38;5008150;28;20401;-74
2022/06/27 06:50:22;;;;;;;3.53;2.30;;;;;;;20.40;86.80;100275.94;5006159;28;20483;-74
2022/06/27 06:52:49;;;;;;;3.17;2.33;;;;;;;20.51;85.91;100283.66;5005543;28;20406;-74
2022/06/27 06:55:16;;;;;;;4.55;2.25;;;;;;;20.55;85.69;100281.03;5004360;28;20412;-74
2022/06/27 06:57:42;;;;;;;2.17;2.00;;;;;;;20.58;85.55;100283.19;5015080;28;20467;-74
2022/06/27 07:00:09;;;;;;;2.25;2.15;;;;;;;20.55;85.79;100279.13;5018740;28;20399;-74
2022/06/27 07:02:35;;;;;;;3.25;2.72;;;;;;;20.49;85.97;100272.13;5015811;28;20451;-74
2022/06/27 07:05:02;;;;;;;2.30;2.20;;;;;;;20.54;85.92;100261.00;5004051;28;20453;-74
2022/06/27 07:07:28;;;;;;;3.05;1.90;;;;;;;20.63;85.74;100253.56;5015461;28;20494;-74
2022/06/27 07:09:54;;;;;;;2.40;2.20;;;;;;;20.62;85.81;100268.47;5038989;28;20449;-75
2022/06/27 07:12:19;;;;;;;2.40;2.30;;;;;;;20.71;84.98;100269.31;5020784;28;20403;-74
2022/06/27 07:14:45;;;;;;;3.23;2.93;;;;;;;20.70;84.92;100275.97;5017905;28;20647;-75
2022/06/27 07:17:11;;;;;;;2.75;2.65;;;;;;;20.61;85.41;100266.03;5012083;28;20807;-75
2022/06/27 07:19:38;;;;;;;3.08;2.78;;;;;;;20.66;85.27;100276.91;5018305;28;20414;-74
2022/06/27 07:22:04;;;;;;;3.38;2.72;;;;;;;20.77;85.00;100291.22;5007785;28;20416;-75
2022/06/27 07:24:30;;;;;;;3.53;3.22;;;;;;;20.76;84.86;100300.59;5013247;28;20895;-75
2022/06/27 07:26:57;;;;;;;3.63;3.42;;;;;;;20.71;84.99;100315.34;5008884;28;20441;-74
2022/06/27 07:29:22;;;;;;;4.50;4.00;;;;;;;20.69;85.36;100332.16;5006446;28;20406;-75
2022/06/27 07:31:48;;;;;;;4.67;3.80;;;;;;;20.69;85.15;100328.59;5015005;28;20415;-75
2022/06/27 07:34:17;;;;;;;4.53;4.13;;;;;;;20.64;85.62;100324.06;5002508;28;20412;-74
2022/06/27 07:36:43;;;;;;;4.97;4.50;;;;;;;20.67;85.59;100315.16;5002126;28;20411;-75
2022/06/27 07:39:08;;;;;;;5.10;4.70;;;;;;;20.71;84.99;100309.84;5017975;28;20761;-75
2022/06/27 07:41:34;;;;;;;5.93;5.33;;;;;;;20.71;84.76;100313.38;5036709;28;20406;-75
2022/06/27 07:44:03;;;;;;;5.70;5.30;;;;;;;20.69;84.84;100318.41;5012589;28;20400;-74
2022/06/27 07:46:31;;;;;;;5.65;5.15;;;;;;;20.73;84.82;100318.59;5017602;28;21056;-75
2022/06/27 07:48:57;;;;;;;5.90;5.38;;;;;;;20.76;84.67;100333.66;5021094;28;20444;-75
2022/06/27 07:51:22;;;;;;;5.40;5.00;;;;;;;20.69;84.74;100334.91;5008392;28;20489;-75
2022/06/27 07:53:49;;;;;;;5.47;5.00;;;;;;;20.68;84.85;100324.25;5012209;28;20754;-75
2022/06/27 07:56:17;;;;;;;6.63;5.70;;;;;;;20.66;84.59;100313.53;5006640;28;20785;-75
2022/06/27 07:58:43;;;;;;;5.85;5.45;;;;;;;20.67;84.75;100317.09;5019232;28;20811;-76
2022/06/27 08:01:12;;;;;;;5.83;5.47;;;;;;;20.70;84.61;100328.28;5009658;28;20976;-75
2022/06/27 08:03:41;;;;;;;6.55;5.85;;;;;;;20.66;84.12;100343.00;5009549;28;20400;-76
2022/06/27 08:06:13;;;;;;;6.10;5.63;;;;;;;20.63;84.12;100341.69;5009362;28;20444;-75
2022/06/27 08:08:41;;;;;;;6.73;6.13;;;;;;;20.58;84.52;100330.00;5020579;28;20493;-74
2022/06/27 08:11:10;;;;;;;6.15;5.65;;;;;;;20.59;85.02;100337.13;5008533;28;20513;-75
2022/06/27 08:13:36;;;;;;;6.28;5.80;;;;;;;20.70;84.49;100338.50;5006282;28;20404;-74
2022/06/27 08:16:02;;;;;;;5.80;5.28;;;;;;;20.70;84.00;100335.75;5006282;28;20745;-74
2022/06/27 08:18:31;;;;;;;5.15;4.85;;;;;;;20.66;84.33;100343.81;5018545;28;20383;-74
2022/06/27 08:20:56;;;;;;;5.28;4.93;;;;;;;20.65;84.25;100353.19;5007038;28;20398;-74
2022/06/27 08:23:22;;;;;;;5.13;4.63;;;;;;;20.83;83.67;100361.56;4997734;28;20423;-74
2022/06/27 08:25:47;;;;;;;5.20;4.90;;;;;;;20.89;83.53;100358.38;5010049;28;20496;-74
2022/06/27 08:28:14;;;;;;;5.40;5.10;;;;;;;20.97;83.82;100359.56;5002636;28;20930;-75
2022/06/27 08:30:41;;;;;;;5.05;4.65;;;;;;;21.00;83.64;100368.00;5028318;28;20415;-74
2022/06/27 08:33:07;;;;;;;5.50;5.00;;;;;;;20.94;83.94;100393.25;5017167;28;20419;-74
2022/06/27 08:35:32;;;;;;;5.47;4.93;;;;;;;20.85;84.13;100376.66;5010329;28;20405;-75
2022/06/27 08:37:58;;;;;;;6.10;5.60;;;;;;;20.71;84.11;100390.47;5011335;28;20400;-75
2022/06/27 08:40:26;;;;;;;5.60;5.10;;;;;;;20.68;84.50;100382.84;5010250;28;20399;-75
2022/06/27 08:42:52;;;;;;;6.35;5.18;;;;;;;20.65;84.28;100366.97;5011906;28;20413;-74
2022/06/27 08:45:23;;;;;;;5.43;5.10;;;;;;;20.75;84.33;100340.31;5007681;28;20753;-75
2022/06/27 08:47:50;;;;;;;5.82;5.43;;;;;;;20.78;84.34;100358.97;5008347;28;20408;-75
2022/06/27 08:50:17;;;;;;;5.65;5.20;;;;;;;20.88;83.84;100364.22;5017589;28;20517;-74
2022/06/27 08:52:45;;;;;;;5.78;5.38;;;;;;;20.95;83.65;100387.41;5005810;28;20467;-74
2022/06/27 08:55:11;;;;;;;6.43;5.65;;;;;;;20.92;83.51;100376.19;5001270;28;20445;-75
2022/06/27 08:57:47;;;;;;;5.60;5.30;;;;;;;20.90;83.85;100400.50;5026777;28;20849;-75
2022/06/27 09:00:17;;;;;;;5.88;5.38;;;;;;;20.90;83.85;100404.06;5032104;28;20475;-76
2022/06/27 09:02:43;;;;;;;6.13;5.53;;;;;;;20.81;83.56;100408.72;5038647;28;20471;-75
2022/06/27 09:05:24;;;;;;;5.90;5.40;;;;;;;20.73;84.10;100428.75;5006150;28;20418;-75
2022/06/27 09:07:52;;;;;;;5.47;5.18;;;;;;;20.71;84.63;100426.28;5020983;28;20405;-75
2022/06/27 09:10:30;;;;;;;6.38;5.88;;;;;;;20.80;84.38;100431.88;5023134;28;20395;-74
2022/06/27 09:13:00;;;;;;;6.30;5.57;;;;;;;20.86;84.13;100432.56;5015917;28;20494;-75
2022/06/27 09:15:29;;;;;;;5.20;4.90;;;;;;;20.83;84.19;100416.66;5019750;28;20398;-74
2022/06/27 09:18:07;;;;;;;5.65;5.35;;;;;;;20.89;83.86;100421.72;5005562;28;20474;-75
2022/06/27 09:20:50;;;;;;;5.80;5.30;;;;;;;21.08;83.34;100403.03;5015382;28;20869;-75
2022/06/27 09:23:50;;;;;;;6.90;6.30;;;;;;;21.14;83.17;100412.03;5017141;28;20436;-74
2022/06/27 09:26:28;;;;;;;5.93;5.43;;;;;;;21.31;82.98;100408.53;5012525;28;20429;-75
2022/06/27 09:29:14;;;;;;;6.40;6.00;;;;;;;21.46;82.55;100416.38;5017433;28;20466;-75
2022/06/27 09:31:45;;;;;;;6.32;5.78;;;;;;;21.54;82.56;100419.16;5000441;28;20422;-75
2022/06/27 09:34:16;;;;;;;5.88;5.43;;;;;;;21.83;80.66;100431.63;5011861;28;20403;-74
2022/06/27 09:36:49;;;;;;;6.63;6.03;;;;;;;21.90;81.19;100432.78;5008249;28;21001;-74
2022/06/27 09:39:24;;;;;;;6.28;5.78;;;;;;;22.12;79.86;100442.91;5010888;28;20744;-74
2022/06/27 09:41:58;;;;;;;6.85;6.25;;;;;;;22.42;79.77;100441.16;5018759;28;20436;-74
2022/06/27 09:44:27;;;;;;;6.43;6.03;;;;;;;22.59;78.34;100450.25;5015437;28;20875;-74
2022/06/27 09:47:18;;;;;;;7.25;6.60;;;;;;;22.31;78.00;100451.72;5019500;28;20409;-74
2022/06/27 09:49:47;;;;;;;6.77;6.33;;;;;;;22.19;79.09;100446.00;5002840;28;20763;-74
2022/06/27 09:52:14;;;;;;;7.18;6.35;;;;;;;22.16;79.19;100458.50;5018675;28;20408;-74
2022/06/27 09:54:42;;;;;;;7.53;6.70;;;;;;;22.18;79.15;100472.81;5021549;28;20436;-75
2022/06/27 09:57:09;;;;;;;6.88;6.28;;;;;;;22.01;78.78;100488.50;5004328;28;20422;-75
2022/06/27 09:59:36;;;;;;;7.25;6.65;;;;;;;21.76;79.71;100490.00;5015450;28;20401;-74
2022/06/27 10:02:01;;;;;;;7.00;6.40;;;;;;;21.49;79.92;100502.03;5018705;28;20463;-75
2022/06/27 10:04:29;;;;;;;9.33;7.07;;;;;;;21.46;80.01;100504.63;5019146;28;20913;-77
2022/06/27 10:06:58;;;;;;;7.50;6.90;;;;;;;21.42;79.68;100503.63;5015924;28;20419;-77
2022/06/27 10:09:25;;;;;;;7.63;6.93;;;;;;;21.35;80.32;100515.09;5010620;28;20484;-76
2022/06/27 10:12:23;;;;;;;7.80;7.10;;;;;;;21.29;80.80;100505.31;5003825;28;20428;-76
2022/06/27 10:15:10;;;;;;;7.70;6.90;;;;;;;21.22;80.66;100485.66;5008825;28;20409;-77
2022/06/27 10:18:05;;;;;;;7.40;6.80;;;;;;;21.18;80.84;100484.66;5009001;28;20416;-77
2022/06/27 10:20:38;;;;;;;7.97;7.22;;;;;;;21.26;80.57;100497.69;5011922;28;20441;-77
2022/06/27 10:23:03;;;;;;;8.10;7.40;;;;;;;21.38;80.84;100481.38;5011319;28;20500;-75
2022/06/27 10:25:29;;;;;;;7.63;6.93;;;;;;;21.45;80.97;100487.25;5014766;28;20584;-76
2022/06/27 10:28:13;;;;;;;8.43;7.47;;;;;;;21.52;80.73;100504.16;5018445;28;20480;-76
2022/06/27 10:30:41;;;;;;;8.13;7.43;;;;;;;21.55;80.92;100506.28;5017728;28;20410;-77
2022/06/27 10:33:18;;;;;;;8.90;7.57;;;;;;;21.56;81.39;100518.97;5018033;28;20404;-77
2022/06/27 10:38:38;;;;;;;8.10;7.30;;;;;;;21.62;80.19;100519.63;5006012;28;20425;-75
2022/06/27 10:41:08;;;;;;;8.77;7.50;;;;;;;21.50;80.63;100519.41;5010636;28;20788;-75
2022/06/27 10:43:38;;;;;;;8.23;7.43;;;;;;;21.38;80.80;100513.63;4991185;28;20403;-75
2022/06/27 10:46:09;;;;;;;8.67;7.77;;;;;;;21.35;81.35;100517.84;5023967;28;20433;-75
2022/06/27 10:48:46;;;;;;;8.15;7.45;;;;;;;21.42;80.95;100520.16;5016031;28;20416;-75
2022/06/27 10:51:18;;;;;;;8.27;7.40;;;;;;;21.43;80.69;100511.59;5010061;28;20409;-75
2022/06/27 10:53:44;;;;;;;8.77;7.40;;;;;;;21.45;80.70;100512.06;5010868;28;20920;-76
2022/06/27 10:56:28;;;;;;;7.72;7.05;;;;;;;21.47;81.05;100522.78;5011143;28;20417;-74
2022/06/27 10:58:54;;;;;;;7.85;7.18;;;;;;;21.35;81.23;100530.81;5004171;28;20445;-74
2022/06/27 11:01:20;;;;;;;7.70;7.00;;;;;;;21.26;81.72;100529.94;5011160;28;20499;-74
2022/06/27 11:03:46;;;;;;;7.35;6.65;;;;;;;21.37;81.71;100536.84;5009039;28;20487;-74
2022/06/27 11:06:16;;;;;;;7.13;6.53;;;;;;;21.35;81.14;100517.03;5013571;28;20428;-74
2022/06/27 11:08:44;;;;;;;7.80;7.00;;;;;;;21.35;81.29;100506.81;5014162;28;20799;-74
2022/06/27 11:11:21;;;;;;;6.05;5.57;;;;;;;21.34;81.32;100505.19;5014708;28;20393;-74
2022/06/27 11:13:47;;;;;;;7.38;5.88;;;;;;;21.47;80.05;100506.25;5014184;28;20411;-74
2022/06/27 11:16:19;;;;;;;5.72;5.15;;;;;;;21.43;80.09;100511.59;5009007;28;20417;-76
2022/06/27 11:18:47;;;;;;;5.63;5.05;;;;;;;21.34;80.34;100510.69;5009624;28;20416;-75
2022/06/27 11:21:15;;;;;;;5.70;5.18;;;;;;;21.63;79.81;100513.00;5010345;28;20888;-75
2022/06/27 11:24:01;;;;;;;4.85;4.55;;;;;;;21.76;79.19;100512.06;5004266;28;20505;-75
2022/06/27 11:26:38;;;;;;;4.55;4.25;;;;;;;21.84;78.15;100519.56;5006692;28;20417;-75
2022/06/27 11:32:06;;;;;;;3.95;3.75;;;;;;;22.22;76.83;100497.81;4996260;28;20422;-75
2022/06/27 11:34:35;;;;;;;3.90;3.67;;;;;;;22.41;75.83;100508.56;5001574;28;20406;-75